createdAt,value
2017-10-30T00:01:04.472Z,6.50
2017-10-30T00:03:32.035Z,6.60
2017-10-30T00:06:00.271Z,6.50
2017-10-30T00:08:27.749Z,6.50
2017-10-30T00:10:55.242Z,6.50
2017-10-30T00:13:23.474Z,6.50
2017-10-30T00:15:50.949Z,6.50
2017-10-30T00:18:18.414Z,6.50
2017-10-30T00:20:46.653Z,6.50
2017-10-30T00:23:14.117Z,6.40
2017-10-30T00:25:41.597Z,6.40
2017-10-30T00:28:09.154Z,6.40
2017-10-30T00:30:37.434Z,6.50
2017-10-30T00:33:05.670Z,6.40
2017-10-30T00:35:33.143Z,6.40
2017-10-30T00:38:00.597Z,6.40
2017-10-30T00:40:28.082Z,6.40
2017-10-30T00:42:56.354Z,6.40
2017-10-30T00:45:24.605Z,6.40
2017-10-30T00:47:52.062Z,6.40
2017-10-30T00:50:19.645Z,6.40
2017-10-30T00:52:47.190Z,6.40
2017-10-30T00:55:14.734Z,6.40
2017-10-30T00:57:42.220Z,6.40
2017-10-30T01:00:10.465Z,6.50
2017-10-30T01:02:37.954Z,6.50
2017-10-30T01:05:06.217Z,6.50
2017-10-30T01:07:33.687Z,6.40
2017-10-30T01:10:01.935Z,6.50
2017-10-30T01:12:29.401Z,6.40
2017-10-30T01:14:56.870Z,6.40
2017-10-30T01:17:24.416Z,6.40
2017-10-30T01:19:51.891Z,6.40
2017-10-30T01:22:20.133Z,6.40
2017-10-30T01:24:47.601Z,6.40
2017-10-30T01:27:15.065Z,6.40
2017-10-30T01:29:42.530Z,6.30
2017-10-30T01:32:09.985Z,6.40
2017-10-30T01:34:37.447Z,6.40
2017-10-30T01:37:05.006Z,6.50
2017-10-30T01:39:32.563Z,6.40
2017-10-30T01:42:00.110Z,6.40
2017-10-30T01:44:27.569Z,6.40
2017-10-30T01:46:55.033Z,6.40
2017-10-30T01:49:22.581Z,6.30
2017-10-30T01:51:50.158Z,6.30
2017-10-30T01:54:18.428Z,6.40
2017-10-30T01:56:46.731Z,6.40
2017-10-30T01:59:14.249Z,6.40
2017-10-30T02:01:41.719Z,6.40
2017-10-30T02:04:09.179Z,6.40
2017-10-30T02:06:37.436Z,6.30
2017-10-30T02:09:04.893Z,6.20
2017-10-30T02:11:32.363Z,6.30
2017-10-30T02:14:00.639Z,6.30
2017-10-30T02:16:28.097Z,6.30
2017-10-30T02:18:55.557Z,6.40
2017-10-30T02:21:23.830Z,6.40
2017-10-30T02:23:52.152Z,6.40
2017-10-30T02:26:19.615Z,6.30
2017-10-30T02:28:47.113Z,6.40
2017-10-30T02:31:14.679Z,6.40
2017-10-30T02:33:42.225Z,6.40
2017-10-30T02:36:09.695Z,6.50
2017-10-30T02:38:37.242Z,6.50
2017-10-30T02:41:04.697Z,6.50
2017-10-30T02:43:32.165Z,6.40
2017-10-30T02:45:59.613Z,6.40
2017-10-30T02:48:27.078Z,6.40
2017-10-30T02:50:55.367Z,6.40
2017-10-30T02:53:23.619Z,6.30
2017-10-30T02:55:51.073Z,6.30
2017-10-30T02:58:19.308Z,6.40
2017-10-30T03:00:46.779Z,6.30
2017-10-30T03:03:14.241Z,6.40
2017-10-30T03:05:41.737Z,6.30
2017-10-30T03:08:09.278Z,6.30
2017-10-30T03:10:36.736Z,6.30
2017-10-30T03:13:04.194Z,6.30
2017-10-30T03:15:31.670Z,6.30
2017-10-30T03:17:59.924Z,6.20
2017-10-30T03:20:27.380Z,6.20
2017-10-30T03:22:54.858Z,6.20
2017-10-30T03:25:23.115Z,6.30
2017-10-30T03:27:50.689Z,6.20
2017-10-30T03:30:18.964Z,6.30
2017-10-30T03:32:47.197Z,6.30
2017-10-30T03:35:14.702Z,6.20
2017-10-30T03:37:42.935Z,6.20
2017-10-30T03:40:10.401Z,6.10
2017-10-30T03:42:37.866Z,6.20
2017-10-30T03:45:05.387Z,6.20
2017-10-30T03:47:32.858Z,6.20
2017-10-30T03:50:00.354Z,6.20
2017-10-30T03:52:27.819Z,6.30
2017-10-30T03:54:56.092Z,6.30
2017-10-30T03:57:24.364Z,6.30
2017-10-30T03:59:51.923Z,6.30
2017-10-30T04:02:20.190Z,6.50
2017-10-30T04:04:47.653Z,6.40
2017-10-30T04:07:15.258Z,6.40
2017-10-30T04:09:42.717Z,6.40
2017-10-30T04:12:10.187Z,6.50
2017-10-30T04:14:37.640Z,6.50
2017-10-30T04:17:05.143Z,6.40
2017-10-30T04:19:33.481Z,6.50
2017-10-30T04:22:00.938Z,6.40
2017-10-30T04:24:28.401Z,6.50
2017-10-30T04:26:55.875Z,6.50
2017-10-30T04:29:24.109Z,6.60
2017-10-30T04:31:51.572Z,6.60
2017-10-30T04:34:19.034Z,6.60
2017-10-30T04:36:46.521Z,6.60
2017-10-30T04:39:14.094Z,6.60
2017-10-30T04:41:42.322Z,6.50
2017-10-30T04:44:09.829Z,6.40
2017-10-30T04:46:38.049Z,6.40
2017-10-30T04:49:05.517Z,6.40
2017-10-30T04:51:32.994Z,6.40
2017-10-30T04:54:00.577Z,6.40
2017-10-30T04:56:28.799Z,6.40
2017-10-30T04:58:56.258Z,6.30
2017-10-30T05:01:23.730Z,6.30
2017-10-30T05:03:51.199Z,6.30
2017-10-30T05:06:18.779Z,6.40
2017-10-30T05:08:47.007Z,6.30
2017-10-30T05:11:14.462Z,6.30
2017-10-30T05:13:42.012Z,6.30
2017-10-30T05:16:09.527Z,6.30
2017-10-30T05:18:37.809Z,6.40
2017-10-30T05:21:06.041Z,6.40
2017-10-30T05:23:33.506Z,6.30
2017-10-30T05:26:00.980Z,6.30
2017-10-30T05:28:28.436Z,6.30
2017-10-30T05:30:55.979Z,6.30
2017-10-30T05:33:23.443Z,6.30
2017-10-30T05:35:51.101Z,6.20
2017-10-30T05:38:18.548Z,6.20
2017-10-30T05:40:46.115Z,6.20
2017-10-30T05:43:13.572Z,6.10
2017-10-30T05:45:41.132Z,6.10
2017-10-30T05:48:08.585Z,6.10
2017-10-30T05:50:36.059Z,6.10
2017-10-30T05:53:03.515Z,6.10
2017-10-30T05:55:34.851Z,6.00
2017-10-30T05:58:02.414Z,6.10
2017-10-30T06:00:29.979Z,6.00
2017-10-30T06:02:57.432Z,6.00
2017-10-30T06:05:24.888Z,5.90
2017-10-30T06:07:52.359Z,5.80
2017-10-30T06:10:20.604Z,5.80
2017-10-30T06:12:48.078Z,5.80
2017-10-30T06:15:16.346Z,5.80
2017-10-30T06:17:43.825Z,5.80
2017-10-30T06:20:12.071Z,5.90
2017-10-30T06:22:39.529Z,5.90
2017-10-30T06:25:07.090Z,5.90
2017-10-30T06:27:34.558Z,6.00
2017-10-30T06:30:02.018Z,6.10
2017-10-30T06:32:30.247Z,6.10
2017-10-30T06:34:57.706Z,6.00
2017-10-30T06:37:25.218Z,6.10
2017-10-30T06:39:53.459Z,6.00
2017-10-30T06:42:21.093Z,6.00
2017-10-30T06:44:48.581Z,6.00
2017-10-30T06:47:16.069Z,6.00
2017-10-30T06:49:44.314Z,6.00
2017-10-30T06:52:11.773Z,5.90
2017-10-30T06:54:39.225Z,6.00
2017-10-30T06:57:06.685Z,6.00
2017-10-30T06:59:34.159Z,6.00
2017-10-30T07:02:01.624Z,6.10
2017-10-30T07:04:29.883Z,6.10
2017-10-30T07:06:57.438Z,6.10
2017-10-30T07:09:24.919Z,6.20
2017-10-30T07:11:53.159Z,6.20
2017-10-30T07:14:20.626Z,6.20
2017-10-30T07:16:48.177Z,6.30
2017-10-30T07:19:15.645Z,6.40
2017-10-30T07:21:43.095Z,6.50
2017-10-30T07:24:10.657Z,6.60
2017-10-30T07:26:38.215Z,6.70
2017-10-30T07:29:05.679Z,6.80
2017-10-30T07:31:33.157Z,7.00
2017-10-30T07:34:01.377Z,7.30
2017-10-30T07:36:28.917Z,7.20
2017-10-30T07:38:56.394Z,7.40
2017-10-30T07:41:23.858Z,7.70
2017-10-30T07:43:51.330Z,7.70
2017-10-30T07:46:18.900Z,7.60
2017-10-30T07:48:46.370Z,7.50
2017-10-30T07:51:14.617Z,7.40
2017-10-30T07:53:42.077Z,7.30
2017-10-30T07:56:09.537Z,7.50
2017-10-30T07:58:36.990Z,7.70
2017-10-30T08:01:04.460Z,7.70
2017-10-30T08:03:32.714Z,7.70
2017-10-30T08:06:01.529Z,7.60
2017-10-30T08:08:29.791Z,7.80
2017-10-30T08:10:57.341Z,7.70
2017-10-30T08:13:25.693Z,7.80
2017-10-30T08:15:53.177Z,7.80
2017-10-30T08:18:20.633Z,7.70
2017-10-30T08:20:48.096Z,7.70
2017-10-30T08:23:15.660Z,8.00
2017-10-30T08:25:43.126Z,8.30
2017-10-30T08:28:11.357Z,9.00
2017-10-30T08:30:38.941Z,8.90
2017-10-30T08:33:06.412Z,9.20
2017-10-30T08:35:33.910Z,9.00
2017-10-30T08:38:01.516Z,9.30
2017-10-30T08:40:29.788Z,10.10
2017-10-30T08:42:58.023Z,10.20
2017-10-30T08:45:25.504Z,10.20
2017-10-30T08:47:52.966Z,10.40
2017-10-30T08:50:20.453Z,10.70
2017-10-30T08:52:48.705Z,10.30
2017-10-30T08:55:16.161Z,10.20
2017-10-30T08:57:43.634Z,10.00
2017-10-30T09:00:11.097Z,9.90
2017-10-30T09:02:39.344Z,10.10
2017-10-30T09:05:06.819Z,10.00
2017-10-30T09:07:34.353Z,10.10
2017-10-30T09:10:04.372Z,10.40
2017-10-30T09:12:31.841Z,10.30
2017-10-30T09:14:59.417Z,10.10
2017-10-30T09:17:26.885Z,10.00
2017-10-30T09:19:59.926Z,9.70
2017-10-30T09:22:27.417Z,9.70
2017-10-30T09:24:54.966Z,9.90
2017-10-30T09:27:22.437Z,10.10
2017-10-30T09:29:50.679Z,10.20
2017-10-30T09:32:18.157Z,10.10
2017-10-30T09:34:45.640Z,10.20
2017-10-30T09:37:13.867Z,11.00
2017-10-30T09:39:41.345Z,11.00
2017-10-30T09:42:08.914Z,11.40
2017-10-30T09:44:36.404Z,11.10
2017-10-30T09:47:03.872Z,11.50
2017-10-30T09:49:31.382Z,11.80
2017-10-30T09:51:59.658Z,12.80
2017-10-30T09:54:27.909Z,13.40
2017-10-30T09:56:55.381Z,13.40
2017-10-30T09:59:22.940Z,14.10
2017-10-30T10:01:50.505Z,14.30
2017-10-30T10:04:18.077Z,14.60
2017-10-30T10:06:46.313Z,14.60
2017-10-30T10:09:13.799Z,14.60
2017-10-30T10:11:41.264Z,15.30
2017-10-30T10:14:09.534Z,16.60
2017-10-30T10:16:36.998Z,16.50
2017-10-30T10:19:05.308Z,14.70
2017-10-30T10:21:32.826Z,14.60
2017-10-30T10:24:00.385Z,13.90
2017-10-30T10:26:28.623Z,15.10
2017-10-30T10:28:56.108Z,15.10
2017-10-30T10:31:24.354Z,15.50
2017-10-30T10:33:51.817Z,15.40
2017-10-30T10:36:19.402Z,15.60
2017-10-30T10:38:46.860Z,16.30
2017-10-30T10:41:15.590Z,16.70
2017-10-30T10:43:43.041Z,16.70
2017-10-30T10:46:10.567Z,15.70
2017-10-30T10:48:38.790Z,13.80
2017-10-30T10:51:06.244Z,13.70
2017-10-30T10:53:33.752Z,13.10
2017-10-30T10:56:02.026Z,12.80
2017-10-30T10:58:30.256Z,13.90
2017-10-30T11:00:57.753Z,13.90
2017-10-30T11:03:25.314Z,15.10
2017-10-30T11:05:52.806Z,15.70
2017-10-30T11:08:20.286Z,15.90
2017-10-30T11:10:47.742Z,15.40
2017-10-30T11:13:15.624Z,15.30
2017-10-30T11:15:43.097Z,15.50
2017-10-30T11:18:10.571Z,16.00
2017-10-30T11:20:38.838Z,17.00
2017-10-30T11:23:07.068Z,17.00
2017-10-30T11:25:34.571Z,17.00
2017-10-30T11:28:02.129Z,17.70
2017-10-30T11:30:29.591Z,18.60
2017-10-30T11:32:57.063Z,19.30
2017-10-30T11:35:25.291Z,20.50
2017-10-30T11:37:52.767Z,20.50
2017-10-30T11:40:20.237Z,21.70
2017-10-30T11:42:48.488Z,21.10
2017-10-30T11:45:16.009Z,21.00
2017-10-30T11:47:43.476Z,21.00
2017-10-30T11:50:10.984Z,21.30
2017-10-30T11:52:39.215Z,22.00
2017-10-30T11:55:06.713Z,21.90
2017-10-30T11:57:34.172Z,22.30
2017-10-30T12:00:01.666Z,22.00
2017-10-30T12:02:29.184Z,21.30
2017-10-30T12:04:56.745Z,21.10
2017-10-30T12:07:24.991Z,20.40
2017-10-30T12:09:52.726Z,20.30
2017-10-30T12:12:20.698Z,20.00
2017-10-30T12:14:48.154Z,19.40
2017-10-30T12:17:15.725Z,18.40
2017-10-30T12:19:43.210Z,17.30
2017-10-30T12:22:10.783Z,16.00
2017-10-30T12:24:38.325Z,14.80
2017-10-30T12:27:05.877Z,14.20
2017-10-30T12:29:33.458Z,14.10
2017-10-30T12:32:00.987Z,14.10
2017-10-30T12:34:28.470Z,13.60
2017-10-30T12:36:55.956Z,12.80
2017-10-30T12:39:24.210Z,11.80
2017-10-30T12:41:52.604Z,11.40
2017-10-30T12:44:20.152Z,11.40
2017-10-30T12:46:48.401Z,11.10
2017-10-30T12:49:16.703Z,10.90
2017-10-30T12:51:44.971Z,10.70
2017-10-30T12:54:12.444Z,10.70
2017-10-30T12:56:40.685Z,10.30
2017-10-30T12:59:08.397Z,10.30
2017-10-30T13:04:10.822Z,10.40
2017-10-30T13:06:38.449Z,10.40
2017-10-30T13:09:06.006Z,10.50
2017-10-30T13:11:33.520Z,10.60
2017-10-30T13:14:01.005Z,10.80
2017-10-30T13:16:29.248Z,10.70
2017-10-30T13:18:56.735Z,10.70
2017-10-30T13:21:25.117Z,10.70
2017-10-30T13:23:53.463Z,10.60
2017-10-30T13:26:21.008Z,10.60
2017-10-30T13:28:48.499Z,10.50
2017-10-30T13:31:16.830Z,10.30
2017-10-30T13:33:44.309Z,10.30
2017-10-30T13:36:11.765Z,10.30
2017-10-30T13:38:39.246Z,10.30
2017-10-30T13:41:07.494Z,10.60
2017-10-30T13:43:34.959Z,10.50
2017-10-30T13:46:02.462Z,10.50
2017-10-30T13:48:29.965Z,10.50
2017-10-30T13:50:57.524Z,10.50
2017-10-30T13:53:25.023Z,10.60
2017-10-30T13:55:52.549Z,10.60
2017-10-30T13:58:20.018Z,10.60
2017-10-30T14:00:47.567Z,10.60
2017-10-30T14:03:15.134Z,10.60
2017-10-30T14:05:43.461Z,10.30
2017-10-30T14:08:10.917Z,10.30
2017-10-30T14:10:38.385Z,10.40
2017-10-30T14:13:05.876Z,10.40
2017-10-30T14:15:33.441Z,10.30
2017-10-30T14:18:01.865Z,10.20
2017-10-30T14:20:29.371Z,10.10
2017-10-30T14:22:56.819Z,10.10
2017-10-30T14:25:24.301Z,10.00
2017-10-30T14:27:52.527Z,9.90
2017-10-30T14:30:20.002Z,9.90
2017-10-30T14:32:47.469Z,9.90
2017-10-30T14:35:15.017Z,10.10
2017-10-30T14:37:42.476Z,10.20
2017-10-30T14:40:10.040Z,10.30
2017-10-30T14:42:37.566Z,10.20
2017-10-30T14:45:05.050Z,10.10
2017-10-30T14:47:32.545Z,10.10
2017-10-30T14:50:00.069Z,10.10
2017-10-30T14:52:27.530Z,10.00
2017-10-30T14:54:55.085Z,10.00
2017-10-30T14:57:22.542Z,9.90
2017-10-30T14:59:49.998Z,9.90
2017-10-30T15:02:17.470Z,9.90
2017-10-30T15:04:45.736Z,9.90
2017-10-30T15:07:13.284Z,9.80
2017-10-30T15:09:40.754Z,9.80
2017-10-30T15:12:08.228Z,9.80
2017-10-30T15:14:36.456Z,9.70
2017-10-30T15:17:03.909Z,9.70
2017-10-30T15:19:31.387Z,9.70
2017-10-30T15:21:58.961Z,9.50
2017-10-30T15:24:26.558Z,9.40
2017-10-30T15:26:54.019Z,9.40
2017-10-30T15:29:21.495Z,9.30
2017-10-30T15:31:49.036Z,9.50
2017-10-30T15:34:16.540Z,9.60
2017-10-30T15:36:44.777Z,9.40
2017-10-30T15:39:12.265Z,9.40
2017-10-30T15:41:39.844Z,9.30
2017-10-30T15:44:07.389Z,9.30
2017-10-30T15:46:34.845Z,9.30
2017-10-30T15:49:02.401Z,9.20
2017-10-30T15:51:29.867Z,9.20
2017-10-30T15:53:57.319Z,9.20
2017-10-30T15:56:24.932Z,9.10
2017-10-30T15:58:52.438Z,9.10
2017-10-30T16:01:19.892Z,9.10
2017-10-30T16:03:48.149Z,9.00
2017-10-30T16:06:15.697Z,9.00
2017-10-30T16:08:43.187Z,9.00
2017-10-30T16:11:10.656Z,9.00
2017-10-30T16:13:38.921Z,8.90
2017-10-30T16:16:06.400Z,8.80
2017-10-30T16:18:34.640Z,8.90
2017-10-30T16:21:02.160Z,8.90
2017-10-30T16:23:29.663Z,8.90
2017-10-30T16:25:57.230Z,8.90
2017-10-30T16:28:24.819Z,8.80
2017-10-30T16:30:52.302Z,8.80
2017-10-30T16:33:19.773Z,8.80
2017-10-30T16:35:47.246Z,8.70
2017-10-30T16:38:14.707Z,8.70
2017-10-30T16:40:42.276Z,8.70
2017-10-30T16:43:09.781Z,8.60
2017-10-30T16:45:37.233Z,8.60
2017-10-30T16:48:04.697Z,8.60
2017-10-30T16:50:32.194Z,8.60
2017-10-30T16:52:59.750Z,8.60
2017-10-30T16:55:27.318Z,8.50
2017-10-30T16:57:54.791Z,8.40
2017-10-30T17:00:23.014Z,8.30
2017-10-30T17:02:50.482Z,8.30
2017-10-30T17:05:17.928Z,8.30
2017-10-30T17:07:45.388Z,8.30
2017-10-30T17:10:12.926Z,8.30
2017-10-30T17:12:40.414Z,8.20
2017-10-30T17:15:07.862Z,8.20
2017-10-30T17:17:35.322Z,8.10
2017-10-30T17:20:02.777Z,8.10
2017-10-30T17:22:30.287Z,8.10
2017-10-30T17:24:58.535Z,8.20
2017-10-30T17:27:25.991Z,8.10
2017-10-30T17:29:53.553Z,8.10
2017-10-30T17:32:21.060Z,8.10
2017-10-30T17:34:48.617Z,8.00
2017-10-30T17:37:16.070Z,8.00
2017-10-30T17:39:43.532Z,8.00
2017-10-30T17:42:10.998Z,8.00
2017-10-30T17:44:38.514Z,8.00
2017-10-30T17:47:06.749Z,8.00
2017-10-30T17:49:34.251Z,7.90
2017-10-30T17:52:02.470Z,7.80
2017-10-30T17:54:29.960Z,7.70
2017-10-30T17:56:57.418Z,7.80
2017-10-30T17:59:24.894Z,7.80
2017-10-30T18:01:53.150Z,7.60
2017-10-30T18:04:20.636Z,7.50
2017-10-30T18:06:48.125Z,7.50
2017-10-30T18:09:15.634Z,7.50
2017-10-30T18:11:43.856Z,7.50
2017-10-30T18:14:11.313Z,7.40
2017-10-30T18:16:38.805Z,7.50
2017-10-30T18:19:06.385Z,7.50
2017-10-30T18:21:34.605Z,7.40
2017-10-30T18:24:02.074Z,7.30
2017-10-30T18:26:29.562Z,7.40
2017-10-30T18:28:57.120Z,7.40
2017-10-30T18:31:24.672Z,7.40
2017-10-30T18:33:52.284Z,7.40
2017-10-30T18:36:19.807Z,7.40
2017-10-30T18:38:48.086Z,7.30
2017-10-30T18:41:16.367Z,7.30
2017-10-30T18:43:44.637Z,7.30
2017-10-30T18:46:12.848Z,7.30
2017-10-30T18:48:40.351Z,7.30
2017-10-30T18:51:07.821Z,7.40
2017-10-30T18:53:36.132Z,7.40
2017-10-30T18:56:03.580Z,7.40
2017-10-30T18:58:31.062Z,7.50
2017-10-30T19:00:58.514Z,7.40
2017-10-30T19:03:25.970Z,7.30
2017-10-30T19:05:53.438Z,7.20
2017-10-30T19:08:20.927Z,7.20
2017-10-30T19:10:48.387Z,7.10
2017-10-30T19:13:16.962Z,7.00
2017-10-30T19:15:44.427Z,7.00
2017-10-30T19:18:11.987Z,7.00
2017-10-30T19:20:39.537Z,6.90
2017-10-30T19:23:07.087Z,6.80
2017-10-30T19:25:34.754Z,6.80
2017-10-30T19:28:02.400Z,6.80
2017-10-30T19:30:29.873Z,6.80
2017-10-30T19:32:57.445Z,6.80
2017-10-30T19:35:25.740Z,6.90
2017-10-30T19:37:53.210Z,6.90
2017-10-30T19:40:20.665Z,6.90
2017-10-30T19:42:48.135Z,6.90
2017-10-30T19:45:15.608Z,6.90
2017-10-30T19:47:43.070Z,6.90
2017-10-30T19:50:10.798Z,6.90
2017-10-30T19:52:38.274Z,7.00
2017-10-30T19:55:05.745Z,6.90
2017-10-30T19:57:33.232Z,6.90
2017-10-30T20:00:00.690Z,6.80
2017-10-30T20:02:28.223Z,6.80
2017-10-30T20:04:55.701Z,6.80
2017-10-30T20:07:28.951Z,6.80
2017-10-30T20:10:02.194Z,6.80
2017-10-30T20:12:30.417Z,6.90
2017-10-30T20:14:57.874Z,6.90
2017-10-30T20:17:25.358Z,6.90
2017-10-30T20:19:52.813Z,6.90
2017-10-30T20:22:20.270Z,6.90
2017-10-30T20:24:50.220Z,6.80
2017-10-30T20:27:18.483Z,6.90
2017-10-30T20:29:46.739Z,6.90
2017-10-30T20:32:14.193Z,6.80
2017-10-30T20:34:43.153Z,6.80
2017-10-30T20:37:10.612Z,6.80
2017-10-30T20:39:38.074Z,6.90
2017-10-30T20:42:05.536Z,6.80
2017-10-30T20:44:33.005Z,6.80
2017-10-30T20:47:00.454Z,6.70
2017-10-30T20:49:27.931Z,6.70
2017-10-30T20:51:55.397Z,6.70
2017-10-30T20:54:22.859Z,6.60
2017-10-30T20:56:50.462Z,6.60
2017-10-30T20:59:17.970Z,6.60
2017-10-30T21:01:45.574Z,6.50
2017-10-30T21:04:13.129Z,6.50
2017-10-30T21:06:42.490Z,6.50
2017-10-30T21:09:09.955Z,6.50
2017-10-30T21:11:38.337Z,6.60
2017-10-30T21:14:06.599Z,6.60
2017-10-30T21:16:34.104Z,6.50
2017-10-30T21:19:01.569Z,6.60
2017-10-30T21:21:29.052Z,6.50
2017-10-30T21:23:56.514Z,6.40
2017-10-30T21:26:23.970Z,6.30
2017-10-30T21:28:51.421Z,6.30
2017-10-30T21:31:18.886Z,6.30
2017-10-30T21:33:46.447Z,6.40
2017-10-30T21:36:14.024Z,6.30
2017-10-30T21:38:42.250Z,6.30
2017-10-30T21:41:09.755Z,6.20
2017-10-30T21:43:37.969Z,6.30
2017-10-30T21:46:05.446Z,6.30
2017-10-30T21:48:33.084Z,6.30
2017-10-30T21:51:00.585Z,6.30
2017-10-30T21:53:28.202Z,6.20
2017-10-30T21:55:55.662Z,6.10
2017-10-30T21:58:23.131Z,6.20
2017-10-30T22:00:50.592Z,6.20
2017-10-30T22:03:18.058Z,6.10
2017-10-30T22:05:45.518Z,6.20
2017-10-30T22:08:13.077Z,6.20
2017-10-30T22:10:40.531Z,6.20
2017-10-30T22:13:09.001Z,6.20
2017-10-30T22:15:36.465Z,6.20
2017-10-30T22:18:09.769Z,6.20
2017-10-30T22:20:37.326Z,6.20
2017-10-30T22:23:04.785Z,6.20
2017-10-30T22:25:32.858Z,6.10
2017-10-30T22:28:01.608Z,6.10
2017-10-30T22:30:29.065Z,6.20
2017-10-30T22:32:56.529Z,6.20
2017-10-30T22:35:24.016Z,6.20
2017-10-30T22:37:51.834Z,6.30
2017-10-30T22:40:19.445Z,6.20
2017-10-30T22:42:46.995Z,6.20
2017-10-30T22:45:14.458Z,6.30
2017-10-30T22:47:42.098Z,6.20
2017-10-30T22:50:10.165Z,6.20
2017-10-30T22:52:37.640Z,6.20
2017-10-30T22:55:05.221Z,6.20
2017-10-30T22:57:32.687Z,6.20
2017-10-30T23:00:00.933Z,6.20
2017-10-30T23:02:28.396Z,6.20
2017-10-30T23:04:55.946Z,6.30
2017-10-30T23:07:23.412Z,6.30
2017-10-30T23:09:50.967Z,6.20
2017-10-30T23:12:18.416Z,6.10
2017-10-30T23:14:45.985Z,6.10
2017-10-30T23:17:13.538Z,6.10
2017-10-30T23:19:41.002Z,6.10
2017-10-30T23:22:08.549Z,6.10
2017-10-30T23:24:35.996Z,6.10
2017-10-30T23:27:03.459Z,6.20
2017-10-30T23:29:30.912Z,6.30
2017-10-30T23:31:58.384Z,6.30
2017-10-30T23:34:25.837Z,6.40
2017-10-30T23:36:53.285Z,6.40
2017-10-30T23:39:20.747Z,6.40
2017-10-30T23:41:48.206Z,6.40
2017-10-30T23:44:15.756Z,6.40
2017-10-30T23:46:43.280Z,6.30
2017-10-30T23:49:10.739Z,6.30
2017-10-30T23:51:38.203Z,6.30
2017-10-30T23:54:05.680Z,6.30
2017-10-30T23:56:33.128Z,6.20
2017-10-30T23:59:00.584Z,6.20
